Time;durP1;ratioP1;P1;durP2;ratioP2;P2;SDS_P1;SDS_P2;PMS_P1;PMS_P2;Temp;Humidity;BMP_temperature;BMP_pressure;BME280_temperature;BME280_humidity;BME280_pressure;Samples;Min_cycle;Max_cycle;Signal;HPM_P1;HPM_P2
2023/02/27 00:01:09;;;;;;;16.88;8.43;;;;;;;;;;4996249;28;20034;-60
2023/02/27 00:03:35;;;;;;;20.17;10.18;;;;;;;;;;4994668;28;20046;-60
2023/02/27 00:06:01;;;;;;;19.25;9.32;;;;;;;;;;4994313;28;20108;-60
2023/02/27 00:08:27;;;;;;;18.33;9.35;;;;;;;;;;4993651;28;20030;-60
2023/02/27 00:10:53;;;;;;;25.25;11.13;;;;;;;;;;4976785;28;20022;-57
2023/02/27 00:13:19;;;;;;;16.50;8.95;;;;;;;;;;4993435;28;20110;-58
2023/02/27 00:15:46;;;;;;;18.98;10.18;;;;;;;;;;4976705;28;20117;-60
2023/02/27 00:18:12;;;;;;;18.27;9.48;;;;;;;;;;4994180;28;20035;-60
2023/02/27 00:20:38;;;;;;;16.00;9.02;;;;;;;;;;4993915;28;20057;-59
2023/02/27 00:23:09;;;;;;;17.58;9.25;;;;;;;;;;4981140;28;20403;-56
2023/02/27 00:25:35;;;;;;;17.58;8.80;;;;;;;;;;4974583;28;20390;-60
2023/02/27 00:28:01;;;;;;;17.10;9.25;;;;;;;;;;4973522;28;20058;-60
2023/02/27 00:30:27;;;;;;;17.40;8.80;;;;;;;;;;4974495;28;20034;-60
2023/02/27 00:32:53;;;;;;;18.98;9.60;;;;;;;;;;4674838;23;9999696;-68
2023/02/27 00:35:19;;;;;;;18.05;9.10;;;;;;;;;;5070425;28;20155;-64
2023/02/27 00:37:46;;;;;;;15.68;8.63;;;;;;;;;;5091390;28;20054;-67
2023/02/27 00:40:12;;;;;;;21.15;9.00;;;;;;;;;;5092379;28;20607;-66
2023/02/27 00:42:38;;;;;;;19.27;9.65;;;;;;;;;;5091764;28;20024;-68
2023/02/27 00:45:05;;;;;;;18.25;9.82;;;;;;;;;;5090906;28;20024;-67
2023/02/27 00:47:31;;;;;;;17.00;8.90;;;;;;;;;;5071686;28;20026;-67
2023/02/27 00:49:57;;;;;;;17.55;9.10;;;;;;;;;;5091798;28;20077;-65
2023/02/27 00:52:23;;;;;;;15.93;8.85;;;;;;;;;;5092471;28;20392;-67
2023/02/27 00:54:49;;;;;;;16.08;8.80;;;;;;;;;;5091929;28;20107;-67
2023/02/27 00:57:16;;;;;;;17.20;8.82;;;;;;;;;;5092429;28;20020;-67
2023/02/27 00:59:43;;;;;;;18.13;9.18;;;;;;;;;;5074444;28;20020;-67
2023/02/27 01:02:09;;;;;;;16.45;9.60;;;;;;;;;;5093343;28;20497;-68
2023/02/27 01:04:35;;;;;;;20.25;10.30;;;;;;;;;;5074688;28;20024;-67
2023/02/27 01:07:01;;;;;;;20.08;10.00;;;;;;;;;;5095056;28;20073;-67
2023/02/27 01:09:27;;;;;;;17.40;9.85;;;;;;;;;;5097260;28;20114;-66
2023/02/27 01:11:53;;;;;;;17.70;9.75;;;;;;;;;;5094953;28;20028;-67
2023/02/27 01:14:19;;;;;;;17.98;9.45;;;;;;;;;;5091803;28;20075;-66
2023/02/27 01:16:45;;;;;;;22.08;10.05;;;;;;;;;;5092463;28;20388;-67
2023/02/27 01:19:11;;;;;;;19.67;10.13;;;;;;;;;;5092176;28;20016;-66
2023/02/27 01:21:37;;;;;;;17.65;10.10;;;;;;;;;;5092116;28;20470;-67
2023/02/27 01:24:03;;;;;;;18.25;9.80;;;;;;;;;;5091252;28;20099;-65
2023/02/27 01:26:29;;;;;;;18.75;10.50;;;;;;;;;;5092011;28;20039;-67
2023/02/27 01:28:55;;;;;;;18.58;9.88;;;;;;;;;;5091762;28;20024;-67
2023/02/27 01:31:21;;;;;;;23.48;13.95;;;;;;;;;;5073474;28;20035;-67
2023/02/27 01:33:47;;;;;;;22.05;11.60;;;;;;;;;;5091068;28;20032;-65
2023/02/27 01:36:13;;;;;;;21.27;12.05;;;;;;;;;;5073706;28;20020;-68
2023/02/27 01:38:40;;;;;;;17.10;10.52;;;;;;;;;;5091758;28;20031;-68
2023/02/27 01:41:06;;;;;;;17.58;10.48;;;;;;;;;;5091608;28;20021;-66
2023/02/27 01:43:33;;;;;;;16.77;9.35;;;;;;;;;;5090907;28;20032;-67
2023/02/27 01:45:59;;;;;;;18.08;8.98;;;;;;;;;;5071775;28;20027;-67
2023/02/27 01:48:32;;;;;;;17.45;9.73;;;;;;;;;;5091773;28;20078;-66
2023/02/27 01:51:02;;;;;;;16.92;9.40;;;;;;;;;;5091520;28;20442;-66
2023/02/27 01:53:29;;;;;;;19.00;10.00;;;;;;;;;;5090818;28;20020;-67
2023/02/27 01:55:58;;;;;;;17.48;10.73;;;;;;;;;;5091400;28;20036;-66
2023/02/27 01:58:25;;;;;;;17.27;9.27;;;;;;;;;;5091714;28;20024;-66
2023/02/27 02:00:52;;;;;;;18.17;9.48;;;;;;;;;;5091276;28;20392;-66
2023/02/27 02:03:27;;;;;;;17.70;10.52;;;;;;;;;;5072466;28;20391;-66
2023/02/27 02:05:54;;;;;;;16.02;9.35;;;;;;;;;;5091204;28;20391;-66
2023/02/27 02:08:21;;;;;;;17.30;10.07;;;;;;;;;;5091343;28;20024;-66
2023/02/27 02:10:48;;;;;;;20.85;9.85;;;;;;;;;;5073007;28;20032;-65
2023/02/27 02:13:14;;;;;;;17.70;9.85;;;;;;;;;;5090567;28;20103;-66
2023/02/27 02:15:45;;;;;;;16.77;9.77;;;;;;;;;;5072924;28;20039;-66
2023/02/27 02:18:31;;;;;;;17.13;10.38;;;;;;;;;;5091252;28;20354;-66
2023/02/27 02:21:20;;;;;;;17.35;10.02;;;;;;;;;;5090962;28;20486;-66
2023/02/27 02:24:05;;;;;;;19.58;10.07;;;;;;;;;;5090257;28;20028;-66
2023/02/27 02:26:46;;;;;;;17.17;9.60;;;;;;;;;;5072765;28;20036;-67
2023/02/27 02:29:21;;;;;;;17.65;9.80;;;;;;;;;;5090765;28;20620;-66
2023/02/27 02:31:50;;;;;;;18.48;9.98;;;;;;;;;;5090608;28;20078;-66
2023/02/27 02:34:25;;;;;;;17.15;10.50;;;;;;;;;;5089962;28;20102;-67
2023/02/27 02:37:03;;;;;;;16.70;9.63;;;;;;;;;;5090712;28;20028;-67
2023/02/27 02:39:35;;;;;;;18.40;9.60;;;;;;;;;;5072623;28;20391;-67
2023/02/27 02:42:21;;;;;;;20.17;11.02;;;;;;;;;;5090405;28;20031;-66
2023/02/27 02:44:57;;;;;;;16.13;9.88;;;;;;;;;;5071659;28;20468;-67
2023/02/27 02:47:41;;;;;;;17.65;10.07;;;;;;;;;;5089017;28;20031;-69
2023/02/27 02:50:19;;;;;;;18.25;10.05;;;;;;;;;;5072070;28;20028;-66
2023/02/27 02:52:51;;;;;;;17.75;10.10;;;;;;;;;;5090193;28;20020;-67
2023/02/27 02:55:30;;;;;;;19.98;10.63;;;;;;;;;;5089914;28;20137;-67
2023/02/27 02:58:16;;;;;;;19.23;10.55;;;;;;;;;;5090330;28;20023;-67
2023/02/27 03:00:54;;;;;;;16.48;10.13;;;;;;;;;;5045041;28;20139;-66
2023/02/27 03:03:24;;;;;;;16.92;10.68;;;;;;;;;;5088182;28;20027;-67
2023/02/27 03:05:53;;;;;;;17.88;11.10;;;;;;;;;;5090204;28;20024;-67
2023/02/27 03:08:26;;;;;;;19.38;11.38;;;;;;;;;;5090223;28;20031;-66
2023/02/27 03:10:56;;;;;;;16.48;10.45;;;;;;;;;;5093733;28;20051;-67
2023/02/27 03:13:35;;;;;;;19.35;11.88;;;;;;;;;;5086998;28;20077;-67
2023/02/27 03:16:08;;;;;;;17.83;10.65;;;;;;;;;;5086033;28;20059;-67
2023/02/27 03:18:40;;;;;;;18.08;10.85;;;;;;;;;;5094172;28;20091;-67
2023/02/27 03:21:09;;;;;;;21.23;11.35;;;;;;;;;;5076138;28;20055;-67
2023/02/27 03:23:45;;;;;;;18.52;11.40;;;;;;;;;;5093325;28;20027;-67
2023/02/27 03:26:13;;;;;;;19.42;10.75;;;;;;;;;;5093987;28;20020;-68
2023/02/27 03:28:39;;;;;;;;;;;;;;;;;;5094428;28;20020;-66
2023/02/27 03:31:13;;;;;;;20.73;11.00;;;;;;;;;;5094118;28;20340;-67
2023/02/27 03:33:44;;;;;;;18.85;11.77;;;;;;;;;;5092951;28;20372;-67
2023/02/27 03:36:32;;;;;;;18.77;11.13;;;;;;;;;;5093983;28;20020;-66
2023/02/27 03:39:18;;;;;;;18.77;11.25;;;;;;;;;;5085327;28;20078;-67
2023/02/27 03:41:53;;;;;;;17.58;11.30;;;;;;;;;;5093358;28;20047;-66
2023/02/27 03:44:46;;;;;;;19.85;11.25;;;;;;;;;;5092796;28;20020;-67
2023/02/27 03:47:12;;;;;;;16.33;10.77;;;;;;;;;;5033407;28;20055;-68
2023/02/27 03:49:38;;;;;;;18.63;11.98;;;;;;;;;;5073443;28;20032;-67
2023/02/27 03:52:04;;;;;;;19.25;11.73;;;;;;;;;;5073456;28;20020;-67
2023/02/27 03:54:32;;;;;;;19.55;11.65;;;;;;;;;;5072462;28;20425;-66
2023/02/27 03:57:02;;;;;;;17.85;11.45;;;;;;;;;;5055309;28;20024;-67
2023/02/27 03:59:28;;;;;;;17.67;11.60;;;;;;;;;;5073289;28;20024;-67
2023/02/27 04:01:55;;;;;;;20.02;11.60;;;;;;;;;;5073227;28;20056;-67
2023/02/27 04:04:22;;;;;;;17.85;11.27;;;;;;;;;;5072418;28;20060;-66
2023/02/27 04:10:00;;;;;;;20.52;12.30;;;;;;;;;;5073457;28;20121;-67
2023/02/27 04:12:35;;;;;;;18.02;12.15;;;;;;;;;;5072923;28;20025;-65
2023/02/27 04:15:04;;;;;;;20.55;12.07;;;;;;;;;;5070312;28;20485;-65
2023/02/27 04:17:31;;;;;;;19.10;12.23;;;;;;;;;;5113561;28;20023;-67
2023/02/27 04:20:16;;;;;;;22.00;12.18;;;;;;;;;;5112926;28;20034;-67
2023/02/27 04:23:04;;;;;;;19.65;12.10;;;;;;;;;;5113145;28;20027;-67
2023/02/27 04:25:30;;;;;;;;;;;;;;;;;;5113925;28;20086;-66
2023/02/27 04:28:18;;;;;;;18.02;11.80;;;;;;;;;;5113107;28;19908;-66
2023/02/27 04:31:03;;;;;;;19.83;12.32;;;;;;;;;;5113309;28;20159;-66
2023/02/27 04:33:37;;;;;;;17.63;11.90;;;;;;;;;;5112222;28;20053;-66
2023/02/27 04:36:12;;;;;;;20.48;12.27;;;;;;;;;;5094868;28;20048;-66
2023/02/27 04:38:39;;;;;;;18.30;12.52;;;;;;;;;;5092349;28;20020;-67
2023/02/27 04:41:05;;;;;;;18.90;12.68;;;;;;;;;;5085368;28;20452;-67
2023/02/27 04:43:32;;;;;;;21.20;13.63;;;;;;;;;;5091832;28;20045;-67
2023/02/27 04:45:59;;;;;;;20.58;13.48;;;;;;;;;;5072526;28;20027;-67
2023/02/27 04:48:44;;;;;;;19.85;12.18;;;;;;;;;;5092365;28;20038;-68
2023/02/27 04:51:12;;;;;;;18.85;12.05;;;;;;;;;;5092437;28;20020;-67
2023/02/27 04:53:45;;;;;;;18.95;12.65;;;;;;;;;;5091573;28;20035;-67
2023/02/27 04:56:15;;;;;;;19.58;12.52;;;;;;;;;;5074050;28;20024;-67
2023/02/27 04:58:43;;;;;;;19.08;12.40;;;;;;;;;;5092616;28;20024;-65
2023/02/27 05:01:18;;;;;;;24.02;13.57;;;;;;;;;;5092532;28;20480;-66
2023/02/27 05:03:46;;;;;;;19.58;12.52;;;;;;;;;;5091567;28;20077;-67
2023/02/27 05:06:14;;;;;;;20.58;13.52;;;;;;;;;;5091794;28;20031;-68
2023/02/27 05:08:40;;;;;;;18.63;12.45;;;;;;;;;;5074032;28;20016;-66
2023/02/27 05:11:06;;;;;;;19.40;12.55;;;;;;;;;;5092084;28;20017;-67
2023/02/27 05:13:45;;;;;;;20.88;13.75;;;;;;;;;;5091469;28;20093;-65
2023/02/27 05:16:11;;;;;;;18.63;13.15;;;;;;;;;;5091980;28;20024;-67
2023/02/27 05:18:37;;;;;;;21.58;14.35;;;;;;;;;;5091772;28;20022;-67
2023/02/27 05:21:21;;;;;;;19.33;13.25;;;;;;;;;;5091526;28;20032;-67
2023/02/27 05:23:47;;;;;;;19.27;13.30;;;;;;;;;;5090973;28;20085;-67
2023/02/27 05:26:23;;;;;;;19.08;13.48;;;;;;;;;;5091694;28;20032;-67
2023/02/27 05:28:52;;;;;;;19.15;13.43;;;;;;;;;;5091769;28;20020;-67
2023/02/27 05:31:22;;;;;;;19.70;13.20;;;;;;;;;;5091438;28;20051;-66
2023/02/27 05:33:54;;;;;;;20.88;13.75;;;;;;;;;;5090535;28;20028;-66
2023/02/27 05:36:38;;;;;;;18.58;13.02;;;;;;;;;;5092252;28;20020;-65
2023/02/27 05:39:06;;;;;;;20.08;13.55;;;;;;;;;;5073279;28;20016;-65
2023/02/27 05:41:34;;;;;;;21.13;13.70;;;;;;;;;;5074313;28;20024;-65
2023/02/27 05:44:04;;;;;;;22.50;13.57;;;;;;;;;;5091088;28;20377;-66
2023/02/27 05:46:33;;;;;;;19.42;14.20;;;;;;;;;;5089866;28;20032;-67
2023/02/27 05:48:58;;;;;;;;;;;;;;;;;;5073453;28;20127;-67
2023/02/27 05:51:26;;;;;;;19.08;12.80;;;;;;;;;;5091372;28;20007;-67
2023/02/27 05:53:54;;;;;;;20.83;14.93;;;;;;;;;;5090291;28;20059;-65
2023/02/27 05:56:22;;;;;;;19.55;14.00;;;;;;;;;;5091096;28;20032;-68
2023/02/27 05:58:54;;;;;;;18.90;14.15;;;;;;;;;;5090974;28;20020;-69
2023/02/27 06:01:19;;;;;;;19.25;13.48;;;;;;;;;;5090958;28;20023;-68
2023/02/27 06:03:46;;;;;;;19.00;13.55;;;;;;;;;;5072146;28;20503;-68
2023/02/27 06:06:14;;;;;;;22.45;13.77;;;;;;;;;;5090684;28;20028;-67
2023/02/27 06:08:40;;;;;;;21.55;15.75;;;;;;;;;;5090882;28;20472;-68
2023/02/27 06:11:06;;;;;;;18.90;14.25;;;;;;;;;;5081749;28;20028;-68
2023/02/27 06:13:32;;;;;;;20.83;13.77;;;;;;;;;;5090167;28;20020;-66
2023/02/27 06:15:58;;;;;;;18.23;13.63;;;;;;;;;;5090363;28;20024;-64
2023/02/27 06:18:24;;;;;;;23.83;14.60;;;;;;;;;;5090480;28;20024;-65
2023/02/27 06:20:50;;;;;;;19.48;14.10;;;;;;;;;;5072457;28;20024;-68
2023/02/27 06:23:16;;;;;;;19.33;13.88;;;;;;;;;;5089988;28;20032;-69
2023/02/27 06:25:42;;;;;;;23.70;14.35;;;;;;;;;;5071933;28;20028;-67
2023/02/27 06:28:08;;;;;;;22.77;13.80;;;;;;;;;;5090000;28;20062;-67
2023/02/27 06:30:34;;;;;;;19.92;14.20;;;;;;;;;;5091809;28;20058;-61
2023/02/27 06:33:00;;;;;;;20.42;14.20;;;;;;;;;;5090871;28;20120;-65
2023/02/27 06:35:28;;;;;;;20.63;14.00;;;;;;;;;;5082995;22;20073;-63
2023/02/27 06:37:54;;;;;;;20.48;13.82;;;;;;;;;;5015355;28;20029;-63
2023/02/27 06:40:20;;;;;;;20.40;14.00;;;;;;;;;;5032178;28;20419;-63
2023/02/27 06:42:46;;;;;;;19.80;13.43;;;;;;;;;;5029851;28;20036;-63
2023/02/27 06:45:13;;;;;;;18.90;13.23;;;;;;;;;;5025021;28;20026;-63
2023/02/27 06:47:40;;;;;;;21.00;14.05;;;;;;;;;;5012100;28;20107;-62
2023/02/27 06:50:06;;;;;;;24.27;14.15;;;;;;;;;;5010526;28;20052;-61
2023/02/27 06:52:32;;;;;;;19.90;14.02;;;;;;;;;;5010884;28;20486;-63
2023/02/27 06:54:59;;;;;;;18.83;13.30;;;;;;;;;;5010640;28;20022;-63
2023/02/27 06:57:25;;;;;;;21.00;13.68;;;;;;;;;;5012301;28;20018;-61
2023/02/27 06:59:51;;;;;;;21.42;14.18;;;;;;;;;;5010643;28;20117;-63
2023/02/27 07:02:17;;;;;;;19.27;12.95;;;;;;;;;;5011793;28;20127;-63
2023/02/27 07:04:43;;;;;;;19.77;12.80;;;;;;;;;;5010643;28;20037;-69
2023/02/27 07:07:09;;;;;;;21.70;12.77;;;;;;;;;;5010549;28;20383;-63
2023/02/27 07:09:36;;;;;;;20.38;12.85;;;;;;;;;;5010452;28;20416;-63
2023/02/27 07:12:02;;;;;;;24.48;13.85;;;;;;;;;;5011402;28;20032;-63
2023/02/27 07:14:28;;;;;;;18.98;13.20;;;;;;;;;;5009338;28;20065;-62
2023/02/27 07:16:54;;;;;;;20.70;12.80;;;;;;;;;;5011722;28;20096;-63
2023/02/27 07:19:21;;;;;;;20.10;12.95;;;;;;;;;;5011178;28;20122;-63
2023/02/27 07:21:47;;;;;;;21.45;13.65;;;;;;;;;;5011163;28;20029;-63
2023/02/27 07:24:13;;;;;;;22.17;13.32;;;;;;;;;;5009005;28;20029;-60
2023/02/27 07:26:39;;;;;;;23.42;12.77;;;;;;;;;;5011513;28;20029;-62
2023/02/27 07:29:05;;;;;;;19.63;12.80;;;;;;;;;;5010984;28;20038;-61
2023/02/27 07:31:31;;;;;;;20.88;13.48;;;;;;;;;;5010670;28;20026;-62
2023/02/27 07:33:57;;;;;;;18.27;12.63;;;;;;;;;;5009060;28;20481;-64
2023/02/27 07:36:23;;;;;;;19.70;12.77;;;;;;;;;;5012242;28;20029;-62
2023/02/27 07:38:50;;;;;;;20.55;12.38;;;;;;;;;;5010843;28;20033;-60
2023/02/27 07:41:16;;;;;;;18.67;12.15;;;;;;;;;;5011152;28;20072;-62
2023/02/27 07:43:42;;;;;;;21.05;11.68;;;;;;;;;;5010767;28;20437;-62
2023/02/27 07:46:08;;;;;;;18.83;11.93;;;;;;;;;;5011130;28;20060;-62
2023/02/27 07:48:34;;;;;;;21.13;12.23;;;;;;;;;;5011240;28;20030;-62
2023/02/27 07:51:01;;;;;;;22.55;12.23;;;;;;;;;;5010958;28;20026;-62
2023/02/27 07:53:27;;;;;;;22.33;12.80;;;;;;;;;;5025455;28;20120;-61
2023/02/27 07:55:53;;;;;;;22.05;12.20;;;;;;;;;;5027957;28;20238;-63
2023/02/27 07:58:19;;;;;;;19.77;12.05;;;;;;;;;;5014491;28;20030;-62
2023/02/27 08:00:45;;;;;;;22.65;12.85;;;;;;;;;;5014553;28;20030;-57
2023/02/27 08:03:11;;;;;;;19.88;12.13;;;;;;;;;;5029119;28;20450;-61
2023/02/27 08:05:37;;;;;;;20.00;11.70;;;;;;;;;;5014308;28;20036;-62
2023/02/27 08:08:03;;;;;;;21.30;11.80;;;;;;;;;;5014290;28;20489;-62
2023/02/27 08:10:29;;;;;;;19.85;12.38;;;;;;;;;;5014134;28;20033;-62
2023/02/27 08:12:55;;;;;;;19.63;11.15;;;;;;;;;;5014281;28;20037;-61
2023/02/27 08:15:21;;;;;;;18.50;11.20;;;;;;;;;;5013801;28;20467;-65
2023/02/27 08:17:47;;;;;;;19.48;11.80;;;;;;;;;;5015075;28;20022;-66
2023/02/27 08:20:14;;;;;;;16.90;11.65;;;;;;;;;;5029997;28;20544;-66
2023/02/27 08:22:41;;;;;;;19.25;12.15;;;;;;;;;;5029787;28;20041;-67
2023/02/27 08:25:09;;;;;;;21.73;11.73;;;;;;;;;;5014521;28;20383;-66
2023/02/27 08:27:35;;;;;;;;;;;;;;;;;;5030607;28;20030;-66
2023/02/27 08:30:01;;;;;;;18.27;11.45;;;;;;;;;;5029633;28;20350;-67
2023/02/27 08:32:27;;;;;;;18.70;11.70;;;;;;;;;;5014962;28;20026;-66
2023/02/27 08:34:53;;;;;;;21.95;12.07;;;;;;;;;;5014129;28;20083;-66
2023/02/27 08:37:19;;;;;;;17.98;11.90;;;;;;;;;;5012987;28;20080;-63
2023/02/27 08:39:45;;;;;;;18.13;11.65;;;;;;;;;;5014078;28;20029;-64
2023/02/27 08:42:11;;;;;;;18.67;11.25;;;;;;;;;;5029440;28;20029;-65
2023/02/27 08:44:37;;;;;;;22.70;12.15;;;;;;;;;;5013107;28;20471;-66
2023/02/27 08:47:03;;;;;;;23.58;12.00;;;;;;;;;;5014409;28;20026;-65
2023/02/27 08:49:29;;;;;;;17.85;11.98;;;;;;;;;;5015105;28;20057;-65
2023/02/27 08:51:56;;;;;;;18.42;11.88;;;;;;;;;;5013552;28;20026;-66
2023/02/27 08:54:22;;;;;;;20.73;11.35;;;;;;;;;;5012709;28;20096;-64
2023/02/27 08:56:48;;;;;;;22.10;11.98;;;;;;;;;;5014565;28;20105;-65
2023/02/27 08:59:14;;;;;;;19.40;11.40;;;;;;;;;;5014551;28;20104;-64
2023/02/27 09:01:40;;;;;;;19.27;11.98;;;;;;;;;;5014744;28;20041;-63
2023/02/27 09:04:06;;;;;;;20.73;12.52;;;;;;;;;;5013476;28;20080;-63
2023/02/27 09:06:33;;;;;;;20.50;11.60;;;;;;;;;;5012622;28;20053;-64
2023/02/27 09:08:59;;;;;;;19.02;11.32;;;;;;;;;;4999294;28;20443;-62
2023/02/27 09:11:25;;;;;;;23.02;11.73;;;;;;;;;;5001799;28;20026;-62
2023/02/27 09:13:52;;;;;;;22.63;12.15;;;;;;;;;;5014276;28;20052;-61
2023/02/27 09:16:18;;;;;;;19.65;11.50;;;;;;;;;;5014380;28;20018;-67
2023/02/27 09:18:45;;;;;;;18.98;10.60;;;;;;;;;;5013123;28;20079;-67
2023/02/27 09:21:11;;;;;;;21.13;11.35;;;;;;;;;;5013055;28;20141;-68
2023/02/27 09:23:37;;;;;;;17.58;10.63;;;;;;;;;;5012053;28;20033;-69
2023/02/27 09:26:04;;;;;;;18.13;10.50;;;;;;;;;;5011228;28;20025;-68
2023/02/27 09:28:30;;;;;;;19.35;11.65;;;;;;;;;;5012665;28;20053;-67
2023/02/27 09:31:00;;;;;;;18.85;10.98;;;;;;;;;;5012701;28;20124;-69
2023/02/27 09:33:27;;;;;;;19.15;10.93;;;;;;;;;;5012652;28;20490;-68
2023/02/27 09:35:53;;;;;;;17.02;10.75;;;;;;;;;;5013364;28;20084;-68
2023/02/27 09:38:19;;;;;;;16.17;10.32;;;;;;;;;;5013551;28;20118;-69
2023/02/27 09:40:46;;;;;;;17.80;10.75;;;;;;;;;;5013414;28;20053;-66
2023/02/27 09:43:18;;;;;;;19.25;11.45;;;;;;;;;;5013043;28;20057;-67
2023/02/27 09:45:46;;;;;;;18.65;10.77;;;;;;;;;;5013844;28;20021;-68
2023/02/27 09:48:38;;;;;;;20.17;11.40;;;;;;;;;;5029375;28;20034;-68
2023/02/27 09:51:04;;;;;;;18.13;10.27;;;;;;;;;;5012195;28;20080;-69
2023/02/27 09:53:34;;;;;;;17.02;10.75;;;;;;;;;;5013247;28;20030;-66
2023/02/27 09:56:05;;;;;;;18.17;10.13;;;;;;;;;;5013751;28;20125;-66
2023/02/27 09:58:34;;;;;;;18.15;11.13;;;;;;;;;;5013831;28;20025;-68
2023/02/27 10:01:07;;;;;;;19.20;10.93;;;;;;;;;;5017457;28;20026;-68
2023/02/27 10:03:42;;;;;;;20.33;10.88;;;;;;;;;;5017836;28;20168;-68
2023/02/27 10:06:08;;;;;;;21.45;10.82;;;;;;;;;;5013478;28;20075;-68
2023/02/27 10:08:40;;;;;;;16.80;10.70;;;;;;;;;;5013281;28;20498;-68
2023/02/27 10:11:11;;;;;;;16.52;10.40;;;;;;;;;;5013587;28;20107;-67
2023/02/27 10:13:40;;;;;;;21.02;11.40;;;;;;;;;;5027724;28;20025;-66
2023/02/27 10:16:09;;;;;;;17.48;10.05;;;;;;;;;;5014471;28;20025;-66
2023/02/27 10:18:58;;;;;;;16.77;10.65;;;;;;;;;;5028147;28;20037;-67
2023/02/27 10:21:33;;;;;;;17.60;10.40;;;;;;;;;;5010227;28;20427;-67
2023/02/27 10:24:10;;;;;;;22.35;12.75;;;;;;;;;;5027087;28;20033;-66
2023/02/27 10:26:38;;;;;;;17.40;10.82;;;;;;;;;;5028168;28;20080;-67
2023/02/27 10:29:22;;;;;;;21.25;10.70;;;;;;;;;;5012905;28;20497;-67
2023/02/27 10:31:53;;;;;;;19.20;11.45;;;;;;;;;;5012649;28;20512;-67
2023/02/27 10:34:20;;;;;;;15.93;10.25;;;;;;;;;;5011436;28;20482;-67
2023/02/27 10:36:46;;;;;;;16.95;10.77;;;;;;;;;;5012671;28;20022;-67
2023/02/27 10:39:14;;;;;;;15.85;10.27;;;;;;;;;;5027692;28;20485;-67
2023/02/27 10:41:40;;;;;;;17.85;10.65;;;;;;;;;;5012922;28;20029;-66
2023/02/27 10:44:08;;;;;;;18.02;10.85;;;;;;;;;;5005980;28;20030;-67
2023/02/27 10:46:37;;;;;;;16.13;10.27;;;;;;;;;;4999877;28;20491;-65
2023/02/27 10:49:12;;;;;;;17.23;10.73;;;;;;;;;;5010000;28;20280;-64
2023/02/27 10:51:38;;;;;;;18.13;10.95;;;;;;;;;;5011999;28;20398;-65
2023/02/27 10:54:16;;;;;;;20.13;10.95;;;;;;;;;;5002706;28;20046;-65
2023/02/27 10:56:44;;;;;;;17.45;10.70;;;;;;;;;;5012177;28;20014;-65
2023/02/27 10:59:18;;;;;;;18.55;11.15;;;;;;;;;;5007721;28;20367;-66
2023/02/27 11:01:47;;;;;;;17.67;10.55;;;;;;;;;;5012172;28;20030;-65
2023/02/27 11:04:13;;;;;;;;;;;;;;;;;;5013812;28;20497;-65
2023/02/27 11:06:41;;;;;;;17.13;10.52;;;;;;;;;;5011905;28;19905;-64
2023/02/27 11:09:13;;;;;;;17.20;10.32;;;;;;;;;;5012039;28;20040;-64
2023/02/27 11:11:39;;;;;;;19.75;10.45;;;;;;;;;;4999643;28;20026;-65
2023/02/27 11:14:23;;;;;;;17.05;10.85;;;;;;;;;;5009579;28;20080;-65
2023/02/27 11:16:51;;;;;;;16.45;10.50;;;;;;;;;;5011896;28;20025;-66
2023/02/27 11:19:34;;;;;;;17.05;10.70;;;;;;;;;;5010707;28;20028;-65
2023/02/27 11:22:00;;;;;;;17.05;10.50;;;;;;;;;;5011984;28;20036;-65
2023/02/27 11:24:27;;;;;;;19.00;11.02;;;;;;;;;;5011260;28;20026;-65
2023/02/27 11:27:05;;;;;;;17.70;10.40;;;;;;;;;;5012096;28;20026;-66
2023/02/27 11:29:31;;;;;;;18.45;10.85;;;;;;;;;;5012619;28;20034;-66
2023/02/27 11:31:57;;;;;;;16.13;10.73;;;;;;;;;;5014290;28;20433;-65
2023/02/27 11:34:26;;;;;;;18.08;11.18;;;;;;;;;;5014528;28;20018;-66
2023/02/27 11:36:54;;;;;;;24.25;13.00;;;;;;;;;;5016028;28;20104;-65
2023/02/27 11:39:30;;;;;;;17.13;11.83;;;;;;;;;;5015660;28;20026;-66
2023/02/27 11:41:58;;;;;;;17.52;12.50;;;;;;;;;;5015275;28;20033;-66
2023/02/27 11:44:26;;;;;;;18.15;11.50;;;;;;;;;;5013483;28;20057;-66
2023/02/27 11:47:12;;;;;;;17.35;11.82;;;;;;;;;;5015198;28;20493;-66
2023/02/27 11:49:42;;;;;;;19.10;11.55;;;;;;;;;;5023536;28;20097;-65
2023/02/27 11:52:12;;;;;;;18.15;12.23;;;;;;;;;;5021112;28;20045;-65
2023/02/27 11:54:40;;;;;;;16.25;11.30;;;;;;;;;;5016561;28;20512;-66
2023/02/27 11:57:28;;;;;;;21.07;12.73;;;;;;;;;;5030003;28;20059;-66
2023/02/27 11:59:57;;;;;;;18.02;11.38;;;;;;;;;;5012286;28;20354;-65
2023/02/27 12:02:45;;;;;;;17.15;11.30;;;;;;;;;;5016219;28;20398;-66
2023/02/27 12:05:26;;;;;;;28.58;15.93;;;;;;;;;;5010752;28;20014;-66
2023/02/27 12:08:05;;;;;;;18.80;11.25;;;;;;;;;;5019447;28;20109;-67
2023/02/27 12:10:39;;;;;;;18.48;11.90;;;;;;;;;;5015156;28;20036;-65
2023/02/27 12:13:14;;;;;;;23.42;13.32;;;;;;;;;;5013731;28;20030;-65
2023/02/27 12:15:46;;;;;;;19.70;11.80;;;;;;;;;;5012493;28;20104;-67
2023/02/27 12:18:19;;;;;;;19.58;11.23;;;;;;;;;;5013949;28;20058;-66
2023/02/27 12:20:45;;;;;;;17.08;10.48;;;;;;;;;;5014307;28;20029;-65
2023/02/27 12:23:15;;;;;;;16.67;11.18;;;;;;;;;;5013630;28;20397;-65
2023/02/27 12:25:57;;;;;;;19.02;11.88;;;;;;;;;;5012887;28;20054;-65
2023/02/27 12:28:25;;;;;;;20.30;12.00;;;;;;;;;;5014374;28;20393;-66
2023/02/27 12:30:51;;;;;;;17.35;11.30;;;;;;;;;;5014807;28;20076;-64
2023/02/27 12:33:26;;;;;;;16.92;11.63;;;;;;;;;;5013540;28;20025;-66
2023/02/27 12:35:55;;;;;;;17.88;11.50;;;;;;;;;;5053111;22;20049;-63
2023/02/27 12:38:22;;;;;;;17.05;11.85;;;;;;;;;;5032701;28;20036;-63
2023/02/27 12:40:51;;;;;;;18.08;12.32;;;;;;;;;;5032341;28;20590;-64
2023/02/27 12:43:23;;;;;;;16.75;11.93;;;;;;;;;;5031154;28;20025;-64
2023/02/27 12:46:08;;;;;;;17.35;11.43;;;;;;;;;;5032301;28;20032;-64
2023/02/27 12:48:37;;;;;;;17.20;11.73;;;;;;;;;;5032100;28;20036;-64
2023/02/27 12:51:03;;;;;;;18.02;12.32;;;;;;;;;;5031862;28;20049;-63
2023/02/27 12:53:29;;;;;;;17.50;12.05;;;;;;;;;;5031133;28;20022;-64
2023/02/27 12:55:59;;;;;;;16.20;11.77;;;;;;;;;;5031250;28;20367;-63
2023/02/27 12:58:34;;;;;;;18.00;12.10;;;;;;;;;;5031723;28;20030;-64
2023/02/27 13:01:27;;;;;;;17.00;11.63;;;;;;;;;;5032170;28;20029;-64
2023/02/27 13:04:10;;;;;;;18.55;12.00;;;;;;;;;;5030933;28;20029;-63
2023/02/27 13:06:47;;;;;;;16.75;11.73;;;;;;;;;;5031104;28;20033;-64
2023/02/27 13:09:13;;;;;;;21.58;11.57;;;;;;;;;;5031816;28;20040;-63
2023/02/27 13:11:58;;;;;;;17.45;12.05;;;;;;;;;;5031879;28;20039;-63
2023/02/27 13:14:27;;;;;;;18.75;11.77;;;;;;;;;;5030822;28;20490;-63
2023/02/27 13:17:02;;;;;;;17.52;12.40;;;;;;;;;;5031600;28;20037;-62
2023/02/27 13:19:33;;;;;;;17.27;12.30;;;;;;;;;;5013570;28;20079;-63
2023/02/27 13:21:59;;;;;;;24.20;12.45;;;;;;;;;;5031377;28;20025;-63
2023/02/27 13:24:29;;;;;;;18.35;12.93;;;;;;;;;;5012464;28;20480;-63
2023/02/27 13:27:04;;;;;;;19.88;12.20;;;;;;;;;;5013848;28;20048;-61
2023/02/27 13:29:35;;;;;;;15.88;11.75;;;;;;;;;;5031284;28;20411;-64
2023/02/27 13:32:21;;;;;;;17.23;12.27;;;;;;;;;;5031227;28;20032;-63
2023/02/27 13:34:49;;;;;;;17.35;11.75;;;;;;;;;;5030599;28;20025;-63
2023/02/27 13:37:15;;;;;;;18.17;12.03;;;;;;;;;;5013372;28;20068;-64
2023/02/27 13:40:00;;;;;;;18.90;11.73;;;;;;;;;;5031066;28;20264;-64
2023/02/27 13:42:26;;;;;;;20.20;14.07;;;;;;;;;;5030732;28;20044;-64
2023/02/27 13:44:55;;;;;;;17.42;11.50;;;;;;;;;;5029143;28;20022;-63
2023/02/27 13:47:30;;;;;;;16.92;11.30;;;;;;;;;;5030568;28;20029;-65
2023/02/27 13:49:58;;;;;;;16.95;11.70;;;;;;;;;;5030756;28;20099;-63
2023/02/27 13:52:32;;;;;;;15.40;11.00;;;;;;;;;;5030620;28;20033;-63
2023/02/27 13:54:58;;;;;;;17.80;11.50;;;;;;;;;;5029570;28;20025;-64
2023/02/27 13:57:26;;;;;;;17.15;11.68;;;;;;;;;;5030538;28;20029;-62
2023/02/27 13:59:54;;;;;;;16.38;10.82;;;;;;;;;;5030419;28;20196;-64
2023/02/27 14:02:24;;;;;;;17.02;11.05;;;;;;;;;;5030673;28;20026;-65
2023/02/27 14:04:52;;;;;;;15.73;11.25;;;;;;;;;;5011963;28;20180;-65
2023/02/27 14:07:23;;;;;;;16.60;11.23;;;;;;;;;;5030264;28;20026;-64
2023/02/27 14:09:51;;;;;;;18.88;11.93;;;;;;;;;;5030439;28;20135;-63
2023/02/27 14:12:31;;;;;;;16.15;11.27;;;;;;;;;;5030151;28;20432;-62
2023/02/27 14:14:57;;;;;;;17.30;11.73;;;;;;;;;;5029997;28;20022;-62
2023/02/27 14:17:32;;;;;;;17.00;11.73;;;;;;;;;;5030104;28;20025;-65
2023/02/27 14:19:58;;;;;;;16.33;11.40;;;;;;;;;;5029911;28;20108;-66
2023/02/27 14:22:30;;;;;;;19.35;11.93;;;;;;;;;;5030112;28;20032;-66
2023/02/27 14:25:04;;;;;;;18.95;12.15;;;;;;;;;;5029442;28;20378;-65
2023/02/27 14:27:31;;;;;;;16.88;11.15;;;;;;;;;;5012213;28;20063;-64
2023/02/27 14:30:00;;;;;;;16.23;11.18;;;;;;;;;;5029994;28;20026;-64
2023/02/27 14:32:28;;;;;;;;;;;;;;;;;;5030432;28;20033;-65
2023/02/27 14:34:54;;;;;;;16.65;11.55;;;;;;;;;;5029464;28;19909;-62
2023/02/27 14:37:23;;;;;;;18.50;11.60;;;;;;;;;;5030033;28;20033;-65
2023/02/27 14:39:51;;;;;;;18.52;11.80;;;;;;;;;;5023585;28;20050;-65